createdAt,value
2022-09-21T00:00:30.402Z,100434.17
2022-09-21T00:03:22.222Z,100436.73
2022-09-21T00:05:54.037Z,100437.58
2022-09-21T00:08:25.866Z,100433.36
2022-09-21T00:10:57.633Z,100437.41
2022-09-21T00:13:29.964Z,100433.61
2022-09-21T00:16:02.131Z,100433.80
2022-09-21T00:18:34.156Z,100433.13
2022-09-21T00:21:09.981Z,100436.58
2022-09-21T00:23:42.849Z,100436.27
2022-09-21T00:26:16.835Z,100437.39
2022-09-21T00:28:54.852Z,100434.52
2022-09-21T00:31:28.251Z,100435.98
2022-09-21T00:34:01.222Z,100439.36
2022-09-21T00:36:33.152Z,100437.98
2022-09-21T00:39:05.463Z,100436.92
2022-09-21T00:41:37.605Z,100443.06
2022-09-21T00:44:29.843Z,100445.09
2022-09-21T00:47:08.823Z,100442.50
2022-09-21T00:49:42.610Z,100442.29
2022-09-21T00:52:15.844Z,100443.23
2022-09-21T00:54:52.592Z,100445.25
2022-09-21T00:57:28.320Z,100446.68
2022-09-21T01:00:05.398Z,100445.80
2022-09-21T01:02:37.907Z,100449.15
2022-09-21T01:05:11.508Z,100448.65
2022-09-21T01:07:47.494Z,100458.06
2022-09-21T01:10:21.424Z,100455.50
2022-09-21T01:13:05.551Z,100453.84
2022-09-21T01:15:47.491Z,100455.55
2022-09-21T01:18:28.431Z,100460.11
2022-09-21T01:21:18.095Z,100460.20
2022-09-21T01:24:15.992Z,100463.59
2022-09-21T01:27:21.067Z,100466.55
2022-09-21T01:29:56.910Z,100469.17
2022-09-21T01:32:34.358Z,100467.09
2022-09-21T01:35:12.241Z,100469.70
2022-09-21T01:37:48.490Z,100468.84
2022-09-21T01:40:26.258Z,100467.83
2022-09-21T01:43:01.043Z,100464.38
2022-09-21T01:45:36.640Z,100468.79
2022-09-21T01:48:09.476Z,100465.64
2022-09-21T01:50:46.109Z,100467.13
2022-09-21T01:53:23.625Z,100473.96
2022-09-21T01:55:59.313Z,100471.45
2022-09-21T01:58:36.405Z,100473.76
2022-09-21T02:01:14.010Z,100472.72
2022-09-21T02:03:50.940Z,100479.80
2022-09-21T02:06:23.192Z,100477.14
2022-09-21T02:08:56.143Z,100477.58
2022-09-21T02:11:27.971Z,100478.92
2022-09-21T02:13:59.738Z,100479.93
2022-09-21T02:16:41.024Z,100481.98
2022-09-21T02:19:22.390Z,100482.40
2022-09-21T02:22:05.217Z,100480.92
2022-09-21T02:24:43.371Z,100480.48
2022-09-21T02:27:25.838Z,100480.41
2022-09-21T02:30:05.662Z,100480.10
2022-09-21T02:32:49.250Z,100476.83
2022-09-21T02:35:32.944Z,100475.64
2022-09-21T02:38:10.610Z,100483.64
2022-09-21T02:40:51.290Z,100489.78
2022-09-21T02:43:27.878Z,100494.23
2022-09-21T02:46:05.450Z,100496.71
2022-09-21T02:48:42.945Z,100498.59
2022-09-21T02:51:18.506Z,100501.31
2022-09-21T02:53:54.947Z,100500.60
2022-09-21T02:56:28.732Z,100504.77
2022-09-21T02:59:05.683Z,100504.47
2022-09-21T03:01:40.728Z,100506.73
2022-09-21T03:04:11.783Z,100509.96
2022-09-21T03:06:43.822Z,100504.97
2022-09-21T03:09:15.818Z,100500.95
2022-09-21T03:11:48.165Z,100508.47
2022-09-21T03:14:20.361Z,100507.23
2022-09-21T03:16:52.330Z,100505.07
2022-09-21T03:19:24.938Z,100510.30
2022-09-21T03:21:57.024Z,100511.93
2022-09-21T03:24:47.199Z,100512.80
2022-09-21T03:27:21.475Z,100504.88
2022-09-21T03:29:53.692Z,100506.77
2022-09-21T03:32:27.010Z,100509.27
2022-09-21T03:34:59.475Z,100514.27
2022-09-21T03:37:31.536Z,100510.08
2022-09-21T03:40:03.956Z,100509.55
2022-09-21T03:42:35.980Z,100506.70
2022-09-21T03:45:10.037Z,100511.55
2022-09-21T03:47:42.323Z,100514.27
2022-09-21T03:50:14.727Z,100517.88
2022-09-21T03:52:46.675Z,100521.09
2022-09-21T03:55:18.768Z,100527.88
2022-09-21T03:57:50.843Z,100528.95
2022-09-21T04:00:23.433Z,100531.45
2022-09-21T04:02:56.181Z,100531.96
2022-09-21T04:05:28.235Z,100535.27
2022-09-21T04:08:02.161Z,100538.85
2022-09-21T04:10:34.645Z,100544.69
2022-09-21T04:13:06.640Z,100545.83
2022-09-21T04:15:38.703Z,100551.63
2022-09-21T04:18:10.711Z,100552.48
2022-09-21T04:20:42.672Z,100558.12
2022-09-21T04:23:14.619Z,100558.86
2022-09-21T04:25:48.384Z,100558.02
2022-09-21T04:28:20.356Z,100552.98
2022-09-21T04:30:55.920Z,100554.42
2022-09-21T04:33:28.072Z,100549.42
2022-09-21T04:36:00.263Z,100551.77
2022-09-21T04:38:33.732Z,100554.36
2022-09-21T04:41:06.019Z,100558.79
2022-09-21T04:43:38.115Z,100561.15
2022-09-21T04:46:12.667Z,100567.54
2022-09-21T04:48:44.861Z,100567.23
2022-09-21T04:51:18.191Z,100568.50
2022-09-21T04:53:50.262Z,100573.70
2022-09-21T04:56:22.338Z,100572.67
2022-09-21T04:58:54.459Z,100572.51
2022-09-21T05:01:26.631Z,100571.63
2022-09-21T05:04:01.913Z,100577.08
2022-09-21T05:06:35.153Z,100576.61
2022-09-21T05:09:25.014Z,100575.65
2022-09-21T05:11:57.182Z,100578.23
2022-09-21T05:14:29.216Z,100582.43
2022-09-21T05:17:01.295Z,100583.08
2022-09-21T05:19:33.322Z,100584.60
2022-09-21T05:22:05.643Z,100587.29
2022-09-21T05:24:37.734Z,100590.74
2022-09-21T05:27:10.050Z,100592.80
2022-09-21T05:29:43.597Z,100593.10
2022-09-21T05:32:22.649Z,100590.55
2022-09-21T05:35:04.530Z,100593.14
2022-09-21T05:37:46.839Z,100595.79
2022-09-21T05:40:20.323Z,100598.38
2022-09-21T05:42:53.625Z,100602.86
2022-09-21T05:45:29.007Z,100610.04
2022-09-21T05:48:12.661Z,100612.19
2022-09-21T05:51:03.475Z,100613.81
2022-09-21T05:53:58.390Z,100616.58
2022-09-21T05:56:45.307Z,100616.79
2022-09-21T05:59:35.207Z,100615.42
2022-09-21T06:02:15.470Z,100616.38
2022-09-21T06:04:50.349Z,100613.56
2022-09-21T06:07:22.475Z,100613.59
2022-09-21T06:09:54.589Z,100615.96
2022-09-21T06:12:26.700Z,100613.83
2022-09-21T06:14:58.861Z,100615.52
2022-09-21T06:17:30.873Z,100614.98
2022-09-21T06:20:04.118Z,100617.17
2022-09-21T06:22:36.490Z,100620.42
2022-09-21T06:25:09.942Z,100621.44
2022-09-21T06:27:41.941Z,100622.84
2022-09-21T06:30:15.033Z,100622.77
2022-09-21T06:32:47.007Z,100624.86
2022-09-21T06:35:19.090Z,100621.73
2022-09-21T06:37:51.107Z,100625.75
2022-09-21T06:40:23.135Z,100627.28
2022-09-21T06:42:59.140Z,100626.95
2022-09-21T06:45:32.696Z,100627.58
2022-09-21T06:48:05.170Z,100628.55
2022-09-21T06:50:37.785Z,100627.81
2022-09-21T06:53:09.849Z,100630.77
2022-09-21T06:55:42.096Z,100639.63
2022-09-21T06:58:14.120Z,100643.79
2022-09-21T07:00:46.856Z,100641.33
2022-09-21T07:03:19.487Z,100641.20
2022-09-21T07:05:51.473Z,100640.58
2022-09-21T07:11:16.338Z,100653.36
2022-09-21T07:13:48.291Z,100657.03
2022-09-21T07:16:21.695Z,100660.80
2022-09-21T07:18:53.662Z,100660.08
2022-09-21T07:21:25.786Z,100659.17
2022-09-21T07:24:00.133Z,100657.17
2022-09-21T07:26:32.208Z,100661.23
2022-09-21T07:29:04.203Z,100664.51
2022-09-21T07:31:36.834Z,100664.16
2022-09-21T07:34:08.847Z,100668.82
2022-09-21T07:36:40.878Z,100673.45
2022-09-21T07:39:13.521Z,100672.69
2022-09-21T07:41:45.562Z,100671.05
2022-09-21T07:44:17.606Z,100670.14
2022-09-21T07:46:51.040Z,100667.61
2022-09-21T07:49:23.038Z,100667.88
2022-09-21T07:51:55.120Z,100670.75
2022-09-21T07:54:27.148Z,100666.98
2022-09-21T07:57:16.909Z,100668.16
2022-09-21T07:59:49.486Z,100669.89
2022-09-21T08:02:21.505Z,100672.48
2022-09-21T08:04:53.774Z,100674.30
2022-09-21T08:07:26.777Z,100678.50
2022-09-21T08:09:58.766Z,100676.65
2022-09-21T08:12:30.781Z,100678.86
2022-09-21T08:15:02.789Z,100673.59
2022-09-21T08:17:34.816Z,100676.54
2022-09-21T08:20:07.554Z,100676.85
2022-09-21T08:22:39.593Z,100681.93
2022-09-21T08:25:12.142Z,100680.45
2022-09-21T08:27:44.270Z,100679.46
2022-09-21T08:30:16.468Z,100677.96
2022-09-21T08:32:51.414Z,100670.41
2022-09-21T08:35:24.056Z,100667.42
2022-09-21T08:37:57.479Z,100670.29
2022-09-21T08:40:29.755Z,100673.71
2022-09-21T08:43:08.400Z,100673.58
2022-09-21T08:45:44.156Z,100676.36
2022-09-21T08:48:25.301Z,100681.33
2022-09-21T08:51:05.939Z,100682.30
2022-09-21T08:53:40.423Z,100686.41
2022-09-21T08:56:14.382Z,100679.23
2022-09-21T08:58:46.442Z,100680.10
2022-09-21T09:01:41.205Z,100680.00
2022-09-21T09:04:28.066Z,100677.77
2022-09-21T09:07:18.729Z,100676.33
2022-09-21T09:10:19.080Z,100677.60
2022-09-21T09:13:01.473Z,100673.90
2022-09-21T09:15:45.367Z,100672.45
2022-09-21T09:18:25.648Z,100679.81
2022-09-21T09:21:03.079Z,100677.58
2022-09-21T09:23:42.432Z,100682.02
2022-09-21T09:26:20.663Z,100681.22
2022-09-21T09:28:55.782Z,100685.64
2022-09-21T09:31:33.049Z,100684.77
2022-09-21T09:34:14.039Z,100683.01
2022-09-21T09:36:59.193Z,100682.60
2022-09-21T09:39:32.812Z,100682.60
2022-09-21T09:42:23.456Z,100686.22
2022-09-21T09:45:08.999Z,100684.19
2022-09-21T09:47:51.342Z,100681.70
2022-09-21T09:50:29.196Z,100685.71
2022-09-21T09:53:06.577Z,100684.86
2022-09-21T09:55:43.858Z,100683.17
2022-09-21T09:58:24.097Z,100676.84
2022-09-21T10:00:59.094Z,100677.41
2022-09-21T10:03:31.828Z,100678.98
2022-09-21T10:06:03.954Z,100677.38
2022-09-21T10:08:47.696Z,100674.21
2022-09-21T10:11:20.072Z,100674.00
2022-09-21T10:13:53.834Z,100673.02
2022-09-21T10:16:26.463Z,100676.96
2022-09-21T10:19:01.772Z,100673.05
2022-09-21T10:21:39.061Z,100676.29
2022-09-21T10:24:21.931Z,100683.81
2022-09-21T10:26:56.921Z,100682.63
2022-09-21T10:29:39.881Z,100692.83
2022-09-21T10:32:27.350Z,100691.41
2022-09-21T10:35:21.958Z,100689.85
2022-09-21T10:38:12.898Z,100690.44
2022-09-21T10:40:46.622Z,100694.14
2022-09-21T10:43:42.620Z,100690.04
2022-09-21T10:46:16.734Z,100696.25
2022-09-21T10:48:49.430Z,100695.23
2022-09-21T10:51:31.931Z,100696.57
2022-09-21T10:54:09.376Z,100698.52
2022-09-21T10:56:54.154Z,100700.63
2022-09-21T10:59:26.828Z,100699.92
2022-09-21T11:02:00.551Z,100695.92
2022-09-21T11:04:43.682Z,100694.80
2022-09-21T11:07:26.222Z,100691.55
2022-09-21T11:10:08.585Z,100691.63
2022-09-21T11:12:50.968Z,100690.45
2022-09-21T11:15:34.372Z,100690.16
2022-09-21T11:18:14.686Z,100688.95
2022-09-21T11:20:50.946Z,100688.95
2022-09-21T11:23:42.045Z,100690.31
2022-09-21T11:26:22.824Z,100686.71
2022-09-21T11:29:00.295Z,100684.70
2022-09-21T11:31:45.318Z,100682.06
2022-09-21T11:34:27.118Z,100676.83
2022-09-21T11:37:12.507Z,100679.60
2022-09-21T11:40:03.002Z,100677.88
2022-09-21T11:42:53.923Z,100671.79
2022-09-21T11:45:47.215Z,100666.73
2022-09-21T11:48:32.233Z,100666.77
2022-09-21T11:51:19.054Z,100661.68
2022-09-21T11:54:10.922Z,100659.36
2022-09-21T11:56:51.299Z,100659.30
2022-09-21T11:59:40.279Z,100663.35
2022-09-21T12:02:37.804Z,100661.60
2022-09-21T12:05:22.779Z,100660.52
2022-09-21T12:08:17.948Z,100661.94
2022-09-21T12:11:00.039Z,100658.35
2022-09-21T12:13:42.023Z,100657.92
2022-09-21T12:16:21.028Z,100655.16
2022-09-21T12:19:04.620Z,100649.63
2022-09-21T12:21:41.905Z,100645.72
2022-09-21T12:24:20.804Z,100644.11
2022-09-21T12:26:57.096Z,100642.65
2022-09-21T12:29:37.259Z,100642.14
2022-09-21T12:32:20.883Z,100637.73
2022-09-21T12:34:57.624Z,100636.75
2022-09-21T12:37:34.975Z,100635.73
2022-09-21T12:40:18.039Z,100634.73
2022-09-21T12:42:56.183Z,100632.58
2022-09-21T12:45:34.321Z,100632.67
2022-09-21T12:48:12.529Z,100631.78
2022-09-21T12:50:49.534Z,100631.44
2022-09-21T12:53:25.274Z,100635.30
2022-09-21T12:56:06.441Z,100634.77
2022-09-21T12:59:06.758Z,100634.42
2022-09-21T13:01:47.078Z,100633.45
2022-09-21T13:04:35.560Z,100638.73
2022-09-21T13:07:37.468Z,100637.40
2022-09-21T13:10:20.324Z,100638.17
2022-09-21T13:12:59.476Z,100636.20
2022-09-21T13:15:33.836Z,100634.51
2022-09-21T13:18:18.297Z,100632.61
2022-09-21T13:20:52.377Z,100640.16
2022-09-21T13:23:29.577Z,100648.46
2022-09-21T13:26:08.759Z,100670.88
2022-09-21T13:29:04.848Z,100675.75
2022-09-21T13:31:57.655Z,100685.79
2022-09-21T13:34:35.919Z,100685.46
2022-09-21T13:37:28.972Z,100685.16
2022-09-21T13:40:44.270Z,100678.05
2022-09-21T13:43:23.448Z,100678.86
2022-09-21T13:45:58.382Z,100684.45
2022-09-21T13:48:31.474Z,100677.27
2022-09-21T13:51:09.053Z,100680.59
2022-09-21T13:53:43.304Z,100679.26
2022-09-21T13:56:29.001Z,100673.07
2022-09-21T13:59:01.243Z,100672.27
2022-09-21T14:01:52.750Z,100673.43
2022-09-21T14:04:28.119Z,100668.23
2022-09-21T14:07:04.009Z,100666.85
2022-09-21T14:09:42.708Z,100666.47
2022-09-21T14:12:25.382Z,100665.88
2022-09-21T14:15:35.929Z,100665.44
2022-09-21T14:18:39.827Z,100664.56
2022-09-21T14:21:17.418Z,100665.95
2022-09-21T14:24:30.097Z,100669.02
2022-09-21T14:27:12.582Z,100664.82
2022-09-21T14:29:49.626Z,100665.81
2022-09-21T14:32:24.669Z,100663.96
2022-09-21T14:35:01.575Z,100659.23
2022-09-21T14:37:37.866Z,100659.06
2022-09-21T14:40:23.781Z,100660.08
2022-09-21T14:42:58.560Z,100661.13
2022-09-21T14:45:36.011Z,100661.00
2022-09-21T14:48:17.326Z,100661.53
2022-09-21T14:50:56.541Z,100664.81
2022-09-21T14:54:13.367Z,100666.27
2022-09-21T14:57:00.389Z,100664.08
2022-09-21T14:59:48.928Z,100663.86
2022-09-21T15:02:24.363Z,100667.27
2022-09-21T15:05:16.815Z,100677.34
2022-09-21T15:08:13.021Z,100681.12
2022-09-21T15:10:58.815Z,100684.89
2022-09-21T15:13:53.623Z,100680.70
2022-09-21T15:16:40.540Z,100681.23
2022-09-21T15:19:22.300Z,100680.64
2022-09-21T15:21:56.069Z,100679.27
2022-09-21T15:24:32.831Z,100679.77
2022-09-21T15:27:15.012Z,100678.91
2022-09-21T15:29:50.167Z,100678.27
2022-09-21T15:32:31.495Z,100678.63
2022-09-21T15:35:06.783Z,100677.75
2022-09-21T15:37:40.557Z,100676.08
2022-09-21T15:40:21.946Z,100681.52
2022-09-21T15:43:06.569Z,100678.77
2022-09-21T15:45:47.256Z,100677.70
2022-09-21T15:48:19.964Z,100677.77
2022-09-21T15:50:58.004Z,100676.38
2022-09-21T15:53:36.351Z,100679.23
2022-09-21T15:56:09.177Z,100682.78
2022-09-21T15:58:42.660Z,100682.48
2022-09-21T16:01:19.478Z,100687.02
2022-09-21T16:04:03.475Z,100688.94
2022-09-21T16:06:42.723Z,100688.57
2022-09-21T16:09:42.669Z,100692.80
2022-09-21T16:12:41.822Z,100698.69
2022-09-21T16:15:28.433Z,100700.77
2022-09-21T16:18:04.133Z,100704.30
2022-09-21T16:20:45.827Z,100705.50
2022-09-21T16:23:23.351Z,100707.48
2022-09-21T16:26:02.237Z,100709.71
2022-09-21T16:28:40.428Z,100713.55
2022-09-21T16:31:31.641Z,100710.11
2022-09-21T16:34:21.740Z,100716.91
2022-09-21T16:36:55.121Z,100716.89
2022-09-21T16:39:27.445Z,100717.03
2022-09-21T16:42:02.872Z,100715.36
2022-09-21T16:44:36.871Z,100719.74
2022-09-21T16:47:16.565Z,100717.38
2022-09-21T16:49:48.521Z,100717.68
2022-09-21T16:52:20.560Z,100718.27
2022-09-21T16:54:52.752Z,100719.12
2022-09-21T16:57:25.972Z,100721.46
2022-09-21T16:59:58.171Z,100724.56
2022-09-21T17:02:31.553Z,100728.27
2022-09-21T17:05:03.600Z,100732.06
2022-09-21T17:07:36.361Z,100735.02
2022-09-21T17:10:16.505Z,100736.55
2022-09-21T17:12:48.493Z,100737.88
2022-09-21T17:15:21.262Z,100741.98
2022-09-21T17:17:53.263Z,100745.21
2022-09-21T17:20:32.194Z,100748.13
2022-09-21T17:23:04.986Z,100751.38
2022-09-21T17:25:38.245Z,100749.45
2022-09-21T17:28:16.179Z,100752.26
2022-09-21T17:30:48.673Z,100754.20
2022-09-21T17:33:21.601Z,100752.34
2022-09-21T17:35:56.856Z,100754.91
2022-09-21T17:38:28.931Z,100755.05
2022-09-21T17:41:01.396Z,100756.66
2022-09-21T17:43:42.165Z,100763.20
2022-09-21T17:46:24.540Z,100759.29
2022-09-21T17:48:57.547Z,100762.67
2022-09-21T17:51:48.094Z,100764.23
2022-09-21T17:54:21.164Z,100760.70
2022-09-21T17:56:58.943Z,100762.23
2022-09-21T17:59:35.023Z,100763.39
2022-09-21T18:02:20.850Z,100767.10
2022-09-21T18:04:58.167Z,100767.67
2022-09-21T18:07:30.987Z,100768.05
2022-09-21T18:10:03.906Z,100764.48
2022-09-21T18:12:48.923Z,100767.40
2022-09-21T18:15:28.849Z,100767.71
2022-09-21T18:18:11.196Z,100770.02
2022-09-21T18:20:57.011Z,100774.45
2022-09-21T18:23:47.775Z,100775.61
2022-09-21T18:26:21.011Z,100775.71
2022-09-21T18:28:58.285Z,100775.11
2022-09-21T18:31:52.470Z,100777.87
2022-09-21T18:34:48.160Z,100777.46
2022-09-21T18:37:27.632Z,100779.98
2022-09-21T18:40:18.802Z,100781.17
2022-09-21T18:42:59.203Z,100780.99
2022-09-21T18:45:36.249Z,100783.34
2022-09-21T18:48:19.311Z,100784.02
2022-09-21T18:50:59.971Z,100788.88
2022-09-21T18:53:38.683Z,100787.51
2022-09-21T18:56:13.066Z,100792.39
2022-09-21T18:58:46.727Z,100790.09
2022-09-21T19:01:22.863Z,100790.41
2022-09-21T19:03:55.905Z,100788.33
2022-09-21T19:06:53.953Z,100790.04
2022-09-21T19:09:41.935Z,100791.80
2022-09-21T19:12:25.405Z,100792.29
2022-09-21T19:15:12.450Z,100793.45
2022-09-21T19:18:00.445Z,100790.90
2022-09-21T19:20:50.972Z,100789.88
2022-09-21T19:23:37.960Z,100785.98
2022-09-21T19:26:17.639Z,100786.31
2022-09-21T19:29:25.420Z,100787.77
2022-09-21T19:31:57.762Z,100791.14
2022-09-21T19:34:31.834Z,100796.96
2022-09-21T19:37:07.764Z,100795.60
2022-09-21T19:39:41.363Z,100794.27
2022-09-21T19:42:29.886Z,100792.18
2022-09-21T19:45:16.257Z,100791.01
2022-09-21T19:47:53.624Z,100790.30
2022-09-21T19:50:40.099Z,100789.19
2022-09-21T19:53:34.061Z,100791.08
2022-09-21T19:56:30.499Z,100789.36
2022-09-21T19:59:21.020Z,100789.90
2022-09-21T20:01:57.801Z,100794.27
2022-09-21T20:04:39.338Z,100797.94
2022-09-21T20:07:20.465Z,100796.16
2022-09-21T20:10:15.165Z,100794.35
2022-09-21T20:12:57.847Z,100794.66
2022-09-21T20:15:35.647Z,100798.63
2022-09-21T20:18:23.462Z,100794.88
2022-09-21T20:20:57.453Z,100798.42
2022-09-21T20:23:30.490Z,100798.30
2022-09-21T20:26:07.243Z,100798.20
2022-09-21T20:28:39.998Z,100797.77
2022-09-21T20:31:12.869Z,100794.61
2022-09-21T20:33:44.973Z,100789.80
2022-09-21T20:36:17.169Z,100789.14
2022-09-21T20:38:49.221Z,100790.13
2022-09-21T20:41:24.528Z,100794.39
2022-09-21T20:43:56.910Z,100790.21
2022-09-21T20:46:29.023Z,100791.09
2022-09-21T20:49:04.932Z,100789.64
2022-09-21T20:51:37.238Z,100786.48
2022-09-21T20:54:09.394Z,100785.28
2022-09-21T20:56:41.602Z,100788.94
2022-09-21T20:59:13.615Z,100786.52
2022-09-21T21:01:45.742Z,100785.29
2022-09-21T21:04:17.868Z,100786.74
2022-09-21T21:06:50.329Z,100786.41
2022-09-21T21:09:22.444Z,100787.02
2022-09-21T21:11:55.251Z,100782.34
2022-09-21T21:14:27.391Z,100781.06
2022-09-21T21:16:59.408Z,100785.23
2022-09-21T21:19:31.649Z,100785.66
2022-09-21T21:22:03.736Z,100786.48
2022-09-21T21:24:42.124Z,100793.51
2022-09-21T21:27:17.992Z,100794.35
2022-09-21T21:29:52.726Z,100790.04
2022-09-21T21:32:26.913Z,100788.95
2022-09-21T21:34:58.922Z,100788.52
2022-09-21T21:37:31.547Z,100790.52
2022-09-21T21:40:04.426Z,100792.08
2022-09-21T21:42:36.466Z,100790.18
2022-09-21T21:45:11.593Z,100788.84
2022-09-21T21:47:43.632Z,100789.21
2022-09-21T21:50:15.821Z,100787.05
2022-09-21T21:52:47.833Z,100789.26
2022-09-21T21:55:19.909Z,100785.52
2022-09-21T21:57:52.210Z,100782.18
2022-09-21T22:00:24.381Z,100781.96
2022-09-21T22:02:58.019Z,100780.83
2022-09-21T22:05:30.097Z,100779.96
2022-09-21T22:08:02.358Z,100776.89
2022-09-21T22:10:34.888Z,100777.27
2022-09-21T22:13:07.116Z,100778.77
2022-09-21T22:15:39.448Z,100777.12
2022-09-21T22:18:11.482Z,100779.76
2022-09-21T22:20:43.612Z,100783.63
2022-09-21T22:23:16.229Z,100780.98
2022-09-21T22:25:48.332Z,100779.96
2022-09-21T22:28:20.434Z,100783.40
2022-09-21T22:30:52.521Z,100780.90
2022-09-21T22:33:24.671Z,100780.13
2022-09-21T22:36:02.043Z,100781.27
2022-09-21T22:38:38.063Z,100785.37
2022-09-21T22:41:14.437Z,100778.23
2022-09-21T22:43:47.641Z,100780.02
2022-09-21T22:46:20.061Z,100778.11
2022-09-21T22:48:52.647Z,100778.30
2022-09-21T22:51:25.486Z,100776.92
2022-09-21T22:53:57.932Z,100778.41
2022-09-21T22:56:31.876Z,100778.77
2022-09-21T22:59:05.786Z,100777.53
2022-09-21T23:01:39.617Z,100778.74
2022-09-21T23:04:13.676Z,100777.41
2022-09-21T23:06:46.594Z,100780.52
2022-09-21T23:09:21.455Z,100784.67
2022-09-21T23:11:54.118Z,100778.73
2022-09-21T23:14:26.173Z,100779.82
2022-09-21T23:16:58.217Z,100780.09
2022-09-21T23:19:30.225Z,100782.14
2022-09-21T23:22:02.365Z,100778.27
2022-09-21T23:24:35.113Z,100780.02
2022-09-21T23:27:07.851Z,100780.35
2022-09-21T23:29:40.047Z,100781.54
2022-09-21T23:32:12.284Z,100785.78
2022-09-21T23:34:44.568Z,100785.54
2022-09-21T23:37:16.683Z,100783.13
2022-09-21T23:39:48.661Z,100786.12
2022-09-21T23:42:20.834Z,100782.54
2022-09-21T23:44:52.967Z,100784.87
2022-09-21T23:47:25.083Z,100780.52
2022-09-21T23:49:57.166Z,100779.64
2022-09-21T23:52:29.512Z,100782.27
2022-09-21T23:55:01.631Z,100781.92
2022-09-21T23:57:33.674Z,100776.53
